Strona główna
METAR-TAF:

METAR-TAF

Lotnisko :

Utsunomiya, Japonia

Szerokość geograficzna: 36-31N, Długość geograficzna: 139-52E, wysokość: 102 m

Aktualna obserwacja pogody

Raport powstał 13 godziny i 49 minut temu, godzina 05:45 UTC
Wiatr 2 kt od zachodnio-północny zachód
Temperatura 13°C
Wilgotność 44%
Ciśnienie 1018 hPa
Widzialność 10 km lub więcej
Mało chmury na wysokości 3000 ft
Rozproszone chmury na wysokości 6000 ft

METAR: RJTU 200545Z 29002KT 9999 FEW030 SCT060 13/01 Q1018 RMK 1CU030 3SC060 A3008

czas: 04:34 (19:34 UTC)


TAF: brakujący

Obserwacja i prognoza pogody dla ponad 4000 lotnisk (raport METAR i TAF).

Dostępne stacje oznaczono żółtymi i czerwonymi punktami na mapie.

Najedź kursorem aby zobaczyć nazwę stacji.

Kliknij aby zobaczyć obserwacje i prognozy pogody.

Aby zmienić mapę: kliknij na zielony przycisk z czarnym krzyżykiem, aby powiększyć; na zielony przycisk z myślnikiem, aby pomniejszyć; na zielone strzałki, aby przejść do map sąsiednich.


METAR-TAF: